createdAt,value
2022-11-15T00:03:22.662Z,34.00
2022-11-15T00:06:09.988Z,50.20
2022-11-15T00:09:00.166Z,55.50
2022-11-15T00:11:47.188Z,48.20
2022-11-15T00:14:34.168Z,47.50
2022-11-15T00:17:20.988Z,40.80
2022-11-15T00:20:08.865Z,46.40
2022-11-15T00:22:55.865Z,43.20
2022-11-15T00:28:29.507Z,43.50
2022-11-15T00:34:02.982Z,48.30
2022-11-15T00:36:49.751Z,42.10
2022-11-15T00:39:36.587Z,48.50
2022-11-15T00:45:10.759Z,35.70
2022-11-15T00:47:58.172Z,45.80
2022-11-15T00:53:31.413Z,38.70
2022-11-15T00:56:18.461Z,40.10
2022-11-15T00:59:05.578Z,35.80
2022-11-15T01:01:53.060Z,37.90
2022-11-15T01:04:39.510Z,37.80
2022-11-15T01:07:26.492Z,38.70
2022-11-15T01:10:13.311Z,30.40
2022-11-15T01:13:00.249Z,40.50
2022-11-15T01:15:47.962Z,48.50
2022-11-15T01:18:34.620Z,44.80
2022-11-15T01:21:22.124Z,44.30
2022-11-15T01:24:13.049Z,32.20
2022-11-15T01:26:59.798Z,33.60
2022-11-15T01:32:33.726Z,33.00
2022-11-15T01:35:21.931Z,39.60
2022-11-15T01:38:08.714Z,40.80
2022-11-15T01:40:56.044Z,42.40
2022-11-15T01:43:43.062Z,39.50
2022-11-15T01:46:36.273Z,38.60
2022-11-15T01:49:25.338Z,36.30
2022-11-15T01:52:16.277Z,38.40
2022-11-15T01:55:20.122Z,36.30
2022-11-15T01:58:08.284Z,38.90
2022-11-15T02:00:55.293Z,36.20
2022-11-15T02:04:05.463Z,33.60
2022-11-15T02:06:52.767Z,35.30
2022-11-15T02:09:40.492Z,33.30
2022-11-15T02:12:27.470Z,32.30
2022-11-15T02:15:14.435Z,30.40
2022-11-15T02:18:30.891Z,33.40
2022-11-15T02:21:17.622Z,33.90
2022-11-15T02:24:26.028Z,30.20
2022-11-15T02:27:18.960Z,28.00
2022-11-15T02:30:16.529Z,28.40
2022-11-15T02:33:24.762Z,31.70
2022-11-15T02:36:34.145Z,32.70
2022-11-15T02:39:46.499Z,30.40
2022-11-15T02:43:03.170Z,30.40
2022-11-15T02:46:03.255Z,28.10
2022-11-15T02:48:52.084Z,32.20
2022-11-15T02:51:40.939Z,29.70
2022-11-15T02:54:31.888Z,30.50
2022-11-15T02:57:22.847Z,26.90
2022-11-15T03:00:13.748Z,34.70
2022-11-15T03:03:30.044Z,30.80
2022-11-15T03:06:54.100Z,34.00
2022-11-15T03:09:43.271Z,30.40
2022-11-15T03:12:38.940Z,33.00
2022-11-15T03:15:32.996Z,34.20
2022-11-15T03:18:33.209Z,32.60
2022-11-15T03:21:22.283Z,30.20
2022-11-15T03:24:10.203Z,29.10
2022-11-15T03:27:00.573Z,29.80
2022-11-15T03:29:54.085Z,32.30
2022-11-15T03:32:51.485Z,31.10
2022-11-15T03:35:41.700Z,32.40
2022-11-15T03:38:33.110Z,35.00
2022-11-15T03:41:52.057Z,32.50
2022-11-15T03:44:45.942Z,34.30
2022-11-15T03:47:39.811Z,31.60
2022-11-15T03:50:27.793Z,36.40
2022-11-15T03:53:15.288Z,37.00
2022-11-15T03:56:02.215Z,36.50
2022-11-15T03:58:49.255Z,39.00
2022-11-15T04:01:35.837Z,35.60
2022-11-15T04:04:22.541Z,36.50
2022-11-15T04:07:09.594Z,39.30
2022-11-15T04:10:06.708Z,36.80
2022-11-15T04:12:53.997Z,30.50
2022-11-15T04:15:40.713Z,37.70
2022-11-15T04:18:28.082Z,30.70
2022-11-15T04:21:33.787Z,37.60
2022-11-15T04:24:20.437Z,33.20
2022-11-15T04:27:07.224Z,35.80
2022-11-15T04:29:54.178Z,32.80
2022-11-15T04:32:40.998Z,37.60
2022-11-15T04:35:28.453Z,34.40
2022-11-15T04:38:15.000Z,30.80
2022-11-15T04:41:02.878Z,32.90
2022-11-15T04:43:49.429Z,31.60
2022-11-15T04:46:36.265Z,30.90
2022-11-15T04:49:22.976Z,28.60
2022-11-15T04:52:09.866Z,30.70
2022-11-15T04:54:56.666Z,29.80
2022-11-15T04:57:43.479Z,30.00
2022-11-15T05:00:31.702Z,30.40
2022-11-15T05:03:36.962Z,27.60
2022-11-15T05:06:23.738Z,29.40
2022-11-15T05:09:10.595Z,30.10
2022-11-15T05:11:57.689Z,29.40
2022-11-15T05:14:44.419Z,26.70
2022-11-15T05:17:31.236Z,33.40
2022-11-15T05:20:18.374Z,30.80
2022-11-15T05:23:05.569Z,27.90
2022-11-15T05:25:52.271Z,25.80
2022-11-15T05:28:39.495Z,32.00
2022-11-15T05:31:27.564Z,24.80
2022-11-15T05:34:14.211Z,24.50
2022-11-15T05:37:01.449Z,28.00
2022-11-15T05:39:48.070Z,24.40
2022-11-15T05:42:34.922Z,28.00
2022-11-15T05:45:26.679Z,30.20
2022-11-15T05:48:15.692Z,26.80
2022-11-15T05:51:05.064Z,25.90
2022-11-15T05:53:53.917Z,25.30
2022-11-15T05:56:40.682Z,26.20
2022-11-15T05:59:31.326Z,24.80
2022-11-15T06:02:18.314Z,21.90
2022-11-15T06:05:05.575Z,23.80
2022-11-15T06:07:52.179Z,23.80
2022-11-15T06:13:25.452Z,25.50
2022-11-15T06:16:12.631Z,29.30
2022-11-15T06:18:59.648Z,24.70
2022-11-15T06:21:46.566Z,22.90
2022-11-15T06:24:33.660Z,29.00
2022-11-15T06:27:20.341Z,26.40
2022-11-15T06:30:07.940Z,27.70
2022-11-15T06:33:06.604Z,24.80
2022-11-15T06:35:53.492Z,29.40
2022-11-15T06:38:40.793Z,26.30
2022-11-15T06:41:27.449Z,25.50
2022-11-15T06:44:14.328Z,35.10
2022-11-15T06:47:01.389Z,32.10
2022-11-15T06:49:47.884Z,30.60
2022-11-15T06:52:35.284Z,30.70
2022-11-15T06:55:21.999Z,31.10
2022-11-15T06:58:08.682Z,26.10
2022-11-15T07:01:00.515Z,36.00
2022-11-15T07:03:47.717Z,34.40
2022-11-15T07:06:34.787Z,26.40
2022-11-15T07:09:21.358Z,31.80
2022-11-15T07:12:08.349Z,29.70
2022-11-15T07:14:55.218Z,30.50
2022-11-15T07:17:42.322Z,32.40
2022-11-15T07:20:29.320Z,32.80
2022-11-15T07:23:16.208Z,31.60
2022-11-15T07:26:02.838Z,36.70
2022-11-15T07:28:49.665Z,33.80
2022-11-15T07:31:36.565Z,34.40
2022-11-15T07:34:23.425Z,33.20
2022-11-15T07:37:10.266Z,35.80
2022-11-15T07:39:57.367Z,37.20
2022-11-15T07:42:57.318Z,33.80
2022-11-15T07:45:46.191Z,33.70
2022-11-15T07:48:43.260Z,34.80
2022-11-15T07:51:31.454Z,28.50
2022-11-15T07:54:18.396Z,29.40
2022-11-15T07:57:07.731Z,31.70
2022-11-15T07:59:55.043Z,38.20
2022-11-15T08:05:29.238Z,32.90
2022-11-15T08:08:17.039Z,33.70
2022-11-15T08:11:03.850Z,31.50
2022-11-15T08:13:50.827Z,32.80
2022-11-15T08:16:37.844Z,41.30
2022-11-15T08:19:25.010Z,34.00
2022-11-15T08:22:11.999Z,30.30
2022-11-15T08:24:58.786Z,34.90
2022-11-15T08:27:46.054Z,32.90
2022-11-15T08:30:37.625Z,33.70
2022-11-15T08:33:25.668Z,28.90
2022-11-15T08:36:17.407Z,27.70
2022-11-15T08:39:04.340Z,26.50
2022-11-15T08:41:51.110Z,30.00
2022-11-15T08:44:38.425Z,22.00
2022-11-15T08:47:25.437Z,20.10
2022-11-15T08:50:13.303Z,21.50
2022-11-15T08:53:06.751Z,17.70
2022-11-15T08:55:53.746Z,18.20
2022-11-15T08:58:41.194Z,18.60
2022-11-15T09:01:28.213Z,15.80
2022-11-15T09:04:14.957Z,15.50
2022-11-15T09:07:01.868Z,16.70
2022-11-15T09:09:49.044Z,15.10
2022-11-15T09:12:36.293Z,14.50
2022-11-15T09:15:22.840Z,15.10
2022-11-15T09:18:09.824Z,14.80
2022-11-15T09:20:58.748Z,13.30
2022-11-15T09:23:45.755Z,14.20
2022-11-15T09:26:32.521Z,11.20
2022-11-15T09:29:19.811Z,11.10
2022-11-15T09:32:06.637Z,10.90
2022-11-15T09:34:53.557Z,11.70
2022-11-15T09:37:40.059Z,11.70
2022-11-15T09:40:27.474Z,12.30
2022-11-15T09:43:32.844Z,10.80
2022-11-15T09:46:34.781Z,10.20
2022-11-15T09:49:27.115Z,11.40
2022-11-15T09:52:23.748Z,11.80
2022-11-15T09:54:55.467Z,10.60
2022-11-15T09:57:54.666Z,11.10
2022-11-15T10:00:46.533Z,10.70
2022-11-15T10:03:18.463Z,14.00
2022-11-15T10:05:52.616Z,11.80
2022-11-15T10:08:27.763Z,13.70
2022-11-15T10:14:00.850Z,13.90
2022-11-15T10:16:28.955Z,12.80
2022-11-15T10:19:35.072Z,12.90
2022-11-15T10:22:18.692Z,14.00
2022-11-15T10:24:47.500Z,17.20
2022-11-15T10:27:20.001Z,13.40
2022-11-15T10:29:50.655Z,15.80
2022-11-15T10:32:21.603Z,15.70
2022-11-15T10:34:51.032Z,15.80
2022-11-15T10:37:37.452Z,15.30
2022-11-15T10:42:36.405Z,19.70
2022-11-15T10:45:25.391Z,16.60
2022-11-15T10:47:54.011Z,16.90
2022-11-15T10:50:31.780Z,16.20
2022-11-15T10:53:03.820Z,16.10
2022-11-15T10:55:34.560Z,14.80
2022-11-15T10:58:07.384Z,18.80
2022-11-15T11:00:40.324Z,17.40
2022-11-15T11:03:34.503Z,23.20
2022-11-15T11:06:17.757Z,17.60
2022-11-15T11:09:36.646Z,17.20
2022-11-15T11:12:07.278Z,16.80
2022-11-15T11:14:38.268Z,17.70
2022-11-15T11:17:32.610Z,17.90
2022-11-15T11:20:17.191Z,20.40
2022-11-15T11:23:03.857Z,20.30
2022-11-15T11:25:50.460Z,18.70
2022-11-15T11:28:36.665Z,18.60
2022-11-15T11:31:07.391Z,18.80
2022-11-15T11:34:03.550Z,18.50
2022-11-15T11:36:59.186Z,16.00
2022-11-15T11:39:49.900Z,16.80
2022-11-15T11:42:45.893Z,17.40
2022-11-15T11:45:47.163Z,19.20
2022-11-15T11:48:42.994Z,19.40
2022-11-15T11:51:24.480Z,30.80
2022-11-15T11:54:14.907Z,17.40
2022-11-15T11:56:46.435Z,23.40
2022-11-15T11:59:40.425Z,24.40
2022-11-15T12:02:30.118Z,28.70
2022-11-15T12:05:23.885Z,28.90
2022-11-15T12:08:03.043Z,24.20
2022-11-15T12:10:34.684Z,22.30
2022-11-15T12:13:17.824Z,28.40
2022-11-15T12:15:57.918Z,22.50
2022-11-15T12:18:25.995Z,26.60
2022-11-15T12:21:20.797Z,27.60
2022-11-15T12:23:59.277Z,22.70
2022-11-15T12:26:35.670Z,26.30
2022-11-15T12:29:17.845Z,22.20
2022-11-15T12:31:53.227Z,20.00
2022-11-15T12:34:21.363Z,20.80
2022-11-15T12:36:51.765Z,20.80
2022-11-15T12:39:20.727Z,28.90
2022-11-15T12:41:57.641Z,26.00
2022-11-15T12:44:31.793Z,32.30
2022-11-15T12:47:01.972Z,30.70
2022-11-15T12:49:30.058Z,30.50
2022-11-15T12:51:58.050Z,32.30
2022-11-15T12:54:26.108Z,33.40
2022-11-15T12:57:09.518Z,32.10
2022-11-15T12:59:59.761Z,30.20
2022-11-15T13:02:44.611Z,30.90
2022-11-15T13:05:19.447Z,29.60
2022-11-15T13:07:50.831Z,31.80
2022-11-15T13:10:28.620Z,30.50
2022-11-15T13:12:59.703Z,39.10
2022-11-15T13:15:30.860Z,28.70
2022-11-15T13:17:59.346Z,39.00
2022-11-15T13:20:32.831Z,32.80
2022-11-15T13:23:05.990Z,28.80
2022-11-15T13:25:37.230Z,26.40
2022-11-15T13:28:17.586Z,26.10
2022-11-15T13:30:48.712Z,29.30
2022-11-15T13:33:20.316Z,33.20
2022-11-15T13:36:00.900Z,26.00
2022-11-15T13:38:32.748Z,30.00
2022-11-15T13:41:15.817Z,28.70
2022-11-15T13:43:44.226Z,32.50
2022-11-15T13:46:16.826Z,34.00
2022-11-15T13:48:47.295Z,54.30
2022-11-15T13:51:25.912Z,52.00
2022-11-15T13:54:03.743Z,52.40
2022-11-15T13:56:35.097Z,37.60
2022-11-15T13:59:25.592Z,38.80
2022-11-15T14:01:55.616Z,47.40
2022-11-15T14:04:26.477Z,45.80
2022-11-15T14:06:58.648Z,54.10
2022-11-15T14:09:37.168Z,52.70
2022-11-15T14:12:27.414Z,48.10
2022-11-15T14:14:55.918Z,35.60
2022-11-15T14:17:29.816Z,28.90
2022-11-15T14:19:58.784Z,25.90
2022-11-15T14:22:29.347Z,28.50
2022-11-15T14:25:22.587Z,25.20
2022-11-15T14:28:16.412Z,23.00
2022-11-15T14:30:48.341Z,20.70
2022-11-15T14:33:21.420Z,19.80
2022-11-15T14:35:49.859Z,22.30
2022-11-15T14:38:18.386Z,18.20
2022-11-15T14:40:46.526Z,20.60
2022-11-15T14:43:14.971Z,21.10
2022-11-15T14:45:43.713Z,25.60
2022-11-15T14:48:11.833Z,27.60
2022-11-15T14:50:40.191Z,27.80
2022-11-15T14:53:15.987Z,30.30
2022-11-15T14:55:44.744Z,28.90
2022-11-15T14:58:12.834Z,27.20
2022-11-15T15:00:42.274Z,31.00
2022-11-15T15:03:11.324Z,32.20
2022-11-15T15:05:44.166Z,32.80
2022-11-15T15:08:13.065Z,34.10
2022-11-15T15:10:46.458Z,34.80
2022-11-15T15:13:22.152Z,55.40
2022-11-15T15:15:52.563Z,65.70
2022-11-15T15:18:21.471Z,73.70
2022-11-15T15:20:58.411Z,63.30
2022-11-15T15:23:30.366Z,75.40
2022-11-15T15:25:58.612Z,67.80
2022-11-15T15:28:31.395Z,72.30
2022-11-15T15:31:03.054Z,75.50
2022-11-15T15:33:32.226Z,69.50
2022-11-15T15:36:00.381Z,69.80
2022-11-15T15:38:28.621Z,76.80
2022-11-15T15:40:56.790Z,70.90
2022-11-15T15:43:24.842Z,68.40
2022-11-15T15:45:53.075Z,81.00
2022-11-15T15:48:21.237Z,67.60
2022-11-15T15:50:50.335Z,77.00
2022-11-15T15:53:18.446Z,74.10
2022-11-15T15:55:46.690Z,82.30
2022-11-15T15:58:15.058Z,79.00
2022-11-15T16:00:43.193Z,76.10
2022-11-15T16:03:11.482Z,79.10
2022-11-15T16:05:39.513Z,73.00
2022-11-15T16:08:42.540Z,69.10
2022-11-15T16:11:16.047Z,79.90
2022-11-15T16:13:44.222Z,71.80
2022-11-15T16:16:14.755Z,74.70
2022-11-15T16:18:43.475Z,80.20
2022-11-15T16:21:11.496Z,79.00
2022-11-15T16:23:40.347Z,73.60
2022-11-15T16:26:27.511Z,80.00
2022-11-15T16:28:55.741Z,67.40
2022-11-15T16:31:23.731Z,74.30
2022-11-15T16:33:51.889Z,64.90
2022-11-15T16:36:30.753Z,69.30
2022-11-15T16:38:59.935Z,65.50
2022-11-15T16:41:27.978Z,65.20
2022-11-15T16:43:56.260Z,72.40
2022-11-15T16:46:26.351Z,96.00
2022-11-15T16:48:55.094Z,100.70
2022-11-15T16:51:23.800Z,110.40
2022-11-15T16:53:52.410Z,117.50
2022-11-15T16:56:30.492Z,112.00
2022-11-15T16:59:00.824Z,113.50
2022-11-15T17:01:31.476Z,116.30
2022-11-15T17:04:00.172Z,118.50
2022-11-15T17:06:28.624Z,114.50
2022-11-15T17:08:57.629Z,102.20
2022-11-15T17:11:25.796Z,97.90
2022-11-15T17:13:58.917Z,99.20
2022-11-15T17:16:27.163Z,87.70
2022-11-15T17:18:55.359Z,82.80
2022-11-15T17:21:23.699Z,82.30
2022-11-15T17:23:52.136Z,86.90
2022-11-15T17:26:30.241Z,91.10
2022-11-15T17:29:01.529Z,86.00
2022-11-15T17:31:31.506Z,81.60
2022-11-15T17:34:01.643Z,72.10
2022-11-15T17:36:29.916Z,74.20
2022-11-15T17:38:59.743Z,67.80
2022-11-15T17:41:29.218Z,71.20
2022-11-15T17:44:00.033Z,66.70
2022-11-15T17:46:29.154Z,71.50
2022-11-15T17:48:58.111Z,79.90
2022-11-15T17:51:26.754Z,108.70
2022-11-15T17:53:56.253Z,146.00
2022-11-15T17:56:27.355Z,155.60
2022-11-15T17:58:58.453Z,184.40
2022-11-15T18:01:28.897Z,183.80
2022-11-15T18:04:00.918Z,171.60
2022-11-15T18:06:31.880Z,186.20
2022-11-15T18:09:00.602Z,182.10
2022-11-15T18:11:40.223Z,168.70
2022-11-15T18:14:12.848Z,162.20
2022-11-15T18:16:41.117Z,142.40
2022-11-15T18:19:13.364Z,125.50
2022-11-15T18:21:59.311Z,130.20
2022-11-15T18:24:35.871Z,116.70
2022-11-15T18:27:05.936Z,117.20
2022-11-15T18:29:37.718Z,99.60
2022-11-15T18:32:11.719Z,99.80
2022-11-15T18:34:42.235Z,89.80
2022-11-15T18:37:10.525Z,96.70
2022-11-15T18:39:38.844Z,82.70
2022-11-15T18:42:07.540Z,82.50
2022-11-15T18:44:36.614Z,78.60
2022-11-15T18:47:05.123Z,80.50
2022-11-15T18:49:33.279Z,83.80
2022-11-15T18:52:01.571Z,84.20
2022-11-15T18:54:31.366Z,97.30
2022-11-15T18:57:00.665Z,97.70
2022-11-15T18:59:29.567Z,98.60
2022-11-15T19:01:58.156Z,129.10
2022-11-15T19:04:26.452Z,136.30
2022-11-15T19:06:54.642Z,124.40
2022-11-15T19:09:27.405Z,142.50
2022-11-15T19:11:55.889Z,147.80
2022-11-15T19:14:26.302Z,140.10
2022-11-15T19:16:55.203Z,168.80
2022-11-15T19:19:25.956Z,164.30
2022-11-15T19:21:54.714Z,144.70
2022-11-15T19:24:22.837Z,147.10
2022-11-15T19:26:51.034Z,143.90
2022-11-15T19:29:19.253Z,146.50
2022-11-15T19:31:48.868Z,150.70
2022-11-15T19:34:18.058Z,142.60
2022-11-15T19:36:46.822Z,133.90
2022-11-15T19:39:18.206Z,134.00
2022-11-15T19:41:47.147Z,124.50
2022-11-15T19:44:15.885Z,133.50
2022-11-15T19:46:45.428Z,119.40
2022-11-15T19:49:13.802Z,123.10
2022-11-15T19:51:42.885Z,109.40
2022-11-15T19:54:11.214Z,108.20
2022-11-15T19:56:40.254Z,103.20
2022-11-15T19:59:09.197Z,110.10
2022-11-15T20:01:39.740Z,101.60
2022-11-15T20:04:10.260Z,94.80
2022-11-15T20:06:43.207Z,94.00
2022-11-15T20:09:13.989Z,95.80
2022-11-15T20:11:42.591Z,89.40
2022-11-15T20:14:13.096Z,94.90
2022-11-15T20:16:41.445Z,85.70
2022-11-15T20:19:09.734Z,93.20
2022-11-15T20:21:38.356Z,85.00
2022-11-15T20:24:09.117Z,86.80
2022-11-15T20:26:58.724Z,91.50
2022-11-15T20:29:26.874Z,95.90
2022-11-15T20:31:54.924Z,86.20
2022-11-15T20:34:23.080Z,89.40
2022-11-15T20:36:51.104Z,93.20
2022-11-15T20:39:19.119Z,98.30
2022-11-15T20:41:47.239Z,104.80
2022-11-15T20:44:15.350Z,91.10
2022-11-15T20:46:43.471Z,88.70
2022-11-15T20:49:11.624Z,99.10
2022-11-15T20:51:39.674Z,91.50
2022-11-15T20:54:09.097Z,100.60
2022-11-15T20:56:37.155Z,99.00
2022-11-15T20:59:05.297Z,100.00
2022-11-15T21:01:33.501Z,105.90
2022-11-15T21:04:02.468Z,106.50
2022-11-15T21:06:30.911Z,104.40
2022-11-15T21:09:17.720Z,107.30
2022-11-15T21:12:04.244Z,95.80
2022-11-15T21:17:01.123Z,107.70
2022-11-15T21:19:35.502Z,107.60
2022-11-15T21:22:06.540Z,101.00
2022-11-15T21:24:34.618Z,94.90
2022-11-15T21:27:02.711Z,98.10
2022-11-15T21:29:43.230Z,99.50
2022-11-15T21:32:12.202Z,99.00
2022-11-15T21:34:40.241Z,100.80
2022-11-15T21:37:08.808Z,106.40
2022-11-15T21:39:37.750Z,104.90
2022-11-15T21:42:06.087Z,124.40
2022-11-15T21:44:34.690Z,143.80
2022-11-15T21:47:03.651Z,153.70
2022-11-15T21:49:31.714Z,141.00
2022-11-15T21:51:59.726Z,139.80
2022-11-15T21:54:27.961Z,129.80
2022-11-15T21:56:56.049Z,133.70
2022-11-15T21:59:24.191Z,128.30
2022-11-15T22:02:10.977Z,120.00
2022-11-15T22:04:39.272Z,124.40
2022-11-15T22:07:07.478Z,122.30
2022-11-15T22:09:35.652Z,120.70
2022-11-15T22:12:03.881Z,111.70
2022-11-15T22:14:32.016Z,117.50
2022-11-15T22:17:00.155Z,117.20
2022-11-15T22:19:28.728Z,119.10
2022-11-15T22:21:57.049Z,123.20
2022-11-15T22:24:25.355Z,111.70
2022-11-15T22:26:53.597Z,121.40
2022-11-15T22:29:21.728Z,120.80
2022-11-15T22:31:49.978Z,115.80
2022-11-15T22:34:19.355Z,110.90
2022-11-15T22:37:18.289Z,113.80
2022-11-15T22:39:35.911Z,121.90
2022-11-15T22:42:04.167Z,121.70
2022-11-15T22:44:32.295Z,122.90
2022-11-15T22:47:01.040Z,119.70
2022-11-15T22:49:29.189Z,109.40
2022-11-15T22:51:57.263Z,111.80
2022-11-15T22:54:25.507Z,100.70
2022-11-15T22:56:53.642Z,106.80
2022-11-15T22:59:21.884Z,99.00
2022-11-15T23:01:51.226Z,101.60
2022-11-15T23:04:19.685Z,101.10
2022-11-15T23:06:48.231Z,93.90
2022-11-15T23:09:17.209Z,94.50
2022-11-15T23:12:04.344Z,98.00
2022-11-15T23:14:32.525Z,89.50
2022-11-15T23:17:00.725Z,93.20
2022-11-15T23:19:28.954Z,93.10
2022-11-15T23:22:15.495Z,90.80
2022-11-15T23:27:15.434Z,101.60
2022-11-15T23:30:02.580Z,96.30
2022-11-15T23:32:50.065Z,102.30
2022-11-15T23:35:18.257Z,101.20
2022-11-15T23:37:46.397Z,91.00
2022-11-15T23:40:14.584Z,89.60
2022-11-15T23:42:42.830Z,106.00
2022-11-15T23:45:11.156Z,106.90
2022-11-15T23:47:39.446Z,102.10
2022-11-15T23:50:08.203Z,102.40
2022-11-15T23:52:36.349Z,104.90
2022-11-15T23:55:05.077Z,102.80
2022-11-15T23:57:33.217Z,109.80
